sensor_id;sensor_type;location;lat;lon;timestamp;P1;durP1;ratioP1;P2;durP2;ratioP2
69970;SDS011;57301;50.328;8.542;2022-11-20T00:01:17;21.33;;;11.25;;
69970;SDS011;57301;50.328;8.542;2022-11-20T00:03:45;24.80;;;12.07;;
69970;SDS011;57301;50.328;8.542;2022-11-20T00:06:14;23.23;;;11.52;;
69970;SDS011;57301;50.328;8.542;2022-11-20T00:08:42;23.38;;;12.20;;
69970;SDS011;57301;50.328;8.542;2022-11-20T00:11:10;24.42;;;12.45;;
69970;SDS011;57301;50.328;8.542;2022-11-20T00:13:42;25.05;;;12.45;;
69970;SDS011;57301;50.328;8.542;2022-11-20T00:16:09;23.97;;;12.90;;
69970;SDS011;57301;50.328;8.542;2022-11-20T00:18:37;24.58;;;12.32;;
69970;SDS011;57301;50.328;8.542;2022-11-20T00:21:04;25.73;;;12.13;;
69970;SDS011;57301;50.328;8.542;2022-11-20T00:23:32;23.70;;;11.70;;
69970;SDS011;57301;50.328;8.542;2022-11-20T00:26:02;23.08;;;11.68;;
69970;SDS011;57301;50.328;8.542;2022-11-20T00:28:30;25.33;;;12.17;;
69970;SDS011;57301;50.328;8.542;2022-11-20T00:31:03;26.85;;;12.55;;
69970;SDS011;57301;50.328;8.542;2022-11-20T00:33:31;24.20;;;11.77;;
69970;SDS011;57301;50.328;8.542;2022-11-20T00:35:59;23.20;;;12.02;;
69970;SDS011;57301;50.328;8.542;2022-11-20T00:38:27;25.30;;;11.57;;
69970;SDS011;57301;50.328;8.542;2022-11-20T00:40:54;23.93;;;11.90;;
69970;SDS011;57301;50.328;8.542;2022-11-20T00:43:22;21.75;;;11.57;;
69970;SDS011;57301;50.328;8.542;2022-11-20T00:45:49;23.58;;;12.02;;
69970;SDS011;57301;50.328;8.542;2022-11-20T00:48:15;26.33;;;11.75;;
69970;SDS011;57301;50.328;8.542;2022-11-20T00:50:42;21.88;;;10.88;;
69970;SDS011;57301;50.328;8.542;2022-11-20T00:53:08;23.43;;;11.90;;
69970;SDS011;57301;50.328;8.542;2022-11-20T00:55:35;23.42;;;12.35;;
69970;SDS011;57301;50.328;8.542;2022-11-20T00:58:02;25.00;;;12.57;;
69970;SDS011;57301;50.328;8.542;2022-11-20T01:00:29;22.58;;;12.18;;
69970;SDS011;57301;50.328;8.542;2022-11-20T01:02:56;27.20;;;12.50;;
69970;SDS011;57301;50.328;8.542;2022-11-20T01:05:22;24.77;;;11.63;;
69970;SDS011;57301;50.328;8.542;2022-11-20T01:07:49;25.85;;;12.90;;
69970;SDS011;57301;50.328;8.542;2022-11-20T01:10:15;26.95;;;13.00;;
69970;SDS011;57301;50.328;8.542;2022-11-20T01:12:42;29.08;;;13.57;;
69970;SDS011;57301;50.328;8.542;2022-11-20T01:15:08;25.45;;;13.38;;
69970;SDS011;57301;50.328;8.542;2022-11-20T01:17:35;25.90;;;13.70;;
69970;SDS011;57301;50.328;8.542;2022-11-20T01:20:02;28.60;;;13.82;;
69970;SDS011;57301;50.328;8.542;2022-11-20T01:22:28;29.35;;;13.48;;
69970;SDS011;57301;50.328;8.542;2022-11-20T01:24:55;26.92;;;12.98;;
69970;SDS011;57301;50.328;8.542;2022-11-20T01:27:21;22.88;;;12.50;;
69970;SDS011;57301;50.328;8.542;2022-11-20T01:29:48;25.70;;;13.00;;
69970;SDS011;57301;50.328;8.542;2022-11-20T01:32:14;25.42;;;11.93;;
69970;SDS011;57301;50.328;8.542;2022-11-20T01:34:41;24.70;;;13.15;;
69970;SDS011;57301;50.328;8.542;2022-11-20T01:37:07;24.02;;;12.07;;
69970;SDS011;57301;50.328;8.542;2022-11-20T01:39:34;26.27;;;12.95;;
69970;SDS011;57301;50.328;8.542;2022-11-20T01:42:00;24.50;;;12.97;;
69970;SDS011;57301;50.328;8.542;2022-11-20T01:47:30;28.08;;;13.48;;
69970;SDS011;57301;50.328;8.542;2022-11-20T01:52:32;26.98;;;13.20;;
69970;SDS011;57301;50.328;8.542;2022-11-20T01:57:39;24.58;;;12.65;;
69970;SDS011;57301;50.328;8.542;2022-11-20T02:00:08;25.05;;;12.85;;
69970;SDS011;57301;50.328;8.542;2022-11-20T02:02:37;26.30;;;12.85;;
69970;SDS011;57301;50.328;8.542;2022-11-20T02:05:51;27.95;;;13.73;;
69970;SDS011;57301;50.328;8.542;2022-11-20T02:08:02;23.47;;;12.90;;
69970;SDS011;57301;50.328;8.542;2022-11-20T02:10:30;26.85;;;13.00;;
69970;SDS011;57301;50.328;8.542;2022-11-20T02:12:58;24.42;;;13.07;;
69970;SDS011;57301;50.328;8.542;2022-11-20T02:15:44;24.90;;;12.25;;
69970;SDS011;57301;50.328;8.542;2022-11-20T02:18:11;27.70;;;13.43;;
69970;SDS011;57301;50.328;8.542;2022-11-20T02:20:40;24.13;;;12.77;;
69970;SDS011;57301;50.328;8.542;2022-11-20T02:23:16;25.40;;;12.98;;
69970;SDS011;57301;50.328;8.542;2022-11-20T02:26:04;25.13;;;12.48;;
69970;SDS011;57301;50.328;8.542;2022-11-20T02:28:35;24.70;;;11.93;;
69970;SDS011;57301;50.328;8.542;2022-11-20T02:31:02;26.55;;;13.00;;
69970;SDS011;57301;50.328;8.542;2022-11-20T02:33:29;23.80;;;12.50;;
69970;SDS011;57301;50.328;8.542;2022-11-20T02:35:55;22.92;;;12.10;;
69970;SDS011;57301;50.328;8.542;2022-11-20T02:38:22;24.15;;;12.95;;
69970;SDS011;57301;50.328;8.542;2022-11-20T02:40:49;23.77;;;12.10;;
69970;SDS011;57301;50.328;8.542;2022-11-20T02:43:20;26.63;;;13.18;;
69970;SDS011;57301;50.328;8.542;2022-11-20T02:45:47;25.47;;;13.20;;
69970;SDS011;57301;50.328;8.542;2022-11-20T02:48:14;27.65;;;13.23;;
69970;SDS011;57301;50.328;8.542;2022-11-20T02:50:40;28.25;;;14.00;;
69970;SDS011;57301;50.328;8.542;2022-11-20T02:53:07;25.23;;;13.07;;
69970;SDS011;57301;50.328;8.542;2022-11-20T02:55:33;25.45;;;12.50;;
69970;SDS011;57301;50.328;8.542;2022-11-20T02:58:00;27.23;;;13.67;;
69970;SDS011;57301;50.328;8.542;2022-11-20T03:00:27;27.77;;;13.48;;
69970;SDS011;57301;50.328;8.542;2022-11-20T03:02:53;29.25;;;14.23;;
69970;SDS011;57301;50.328;8.542;2022-11-20T03:05:20;30.75;;;15.00;;
69970;SDS011;57301;50.328;8.542;2022-11-20T03:07:46;27.48;;;13.50;;
69970;SDS011;57301;50.328;8.542;2022-11-20T03:10:13;26.93;;;13.17;;
69970;SDS011;57301;50.328;8.542;2022-11-20T03:12:39;24.33;;;12.73;;
69970;SDS011;57301;50.328;8.542;2022-11-20T03:15:06;26.48;;;13.55;;
69970;SDS011;57301;50.328;8.542;2022-11-20T03:17:33;27.85;;;13.73;;
69970;SDS011;57301;50.328;8.542;2022-11-20T03:19:59;29.73;;;13.65;;
69970;SDS011;57301;50.328;8.542;2022-11-20T03:22:28;28.17;;;14.07;;
69970;SDS011;57301;50.328;8.542;2022-11-20T03:24:55;28.13;;;14.40;;
69970;SDS011;57301;50.328;8.542;2022-11-20T03:27:21;25.48;;;13.77;;
69970;SDS011;57301;50.328;8.542;2022-11-20T03:29:48;26.55;;;13.82;;
69970;SDS011;57301;50.328;8.542;2022-11-20T03:32:14;28.38;;;14.48;;
69970;SDS011;57301;50.328;8.542;2022-11-20T03:34:41;27.73;;;13.70;;
69970;SDS011;57301;50.328;8.542;2022-11-20T03:37:07;28.98;;;13.70;;
69970;SDS011;57301;50.328;8.542;2022-11-20T03:39:34;29.27;;;13.68;;
69970;SDS011;57301;50.328;8.542;2022-11-20T03:42:00;29.67;;;14.77;;
69970;SDS011;57301;50.328;8.542;2022-11-20T03:44:27;32.50;;;14.05;;
69970;SDS011;57301;50.328;8.542;2022-11-20T03:46:53;26.93;;;13.73;;
69970;SDS011;57301;50.328;8.542;2022-11-20T03:49:19;27.30;;;13.68;;
69970;SDS011;57301;50.328;8.542;2022-11-20T03:51:46;27.55;;;13.20;;
69970;SDS011;57301;50.328;8.542;2022-11-20T03:54:13;28.83;;;14.25;;
69970;SDS011;57301;50.328;8.542;2022-11-20T03:56:40;29.25;;;14.32;;
69970;SDS011;57301;50.328;8.542;2022-11-20T03:59:06;28.87;;;13.47;;
69970;SDS011;57301;50.328;8.542;2022-11-20T04:01:36;26.02;;;13.75;;
69970;SDS011;57301;50.328;8.542;2022-11-20T04:04:11;27.30;;;14.70;;
69970;SDS011;57301;50.328;8.542;2022-11-20T04:06:38;27.67;;;14.23;;
69970;SDS011;57301;50.328;8.542;2022-11-20T04:09:05;25.88;;;13.63;;
69970;SDS011;57301;50.328;8.542;2022-11-20T04:11:33;28.60;;;13.77;;
69970;SDS011;57301;50.328;8.542;2022-11-20T04:14:03;30.05;;;14.52;;
69970;SDS011;57301;50.328;8.542;2022-11-20T04:16:31;32.15;;;15.30;;
69970;SDS011;57301;50.328;8.542;2022-11-20T04:19:03;26.00;;;13.30;;
69970;SDS011;57301;50.328;8.542;2022-11-20T04:21:36;32.33;;;13.95;;
69970;SDS011;57301;50.328;8.542;2022-11-20T04:24:03;26.57;;;13.73;;
69970;SDS011;57301;50.328;8.542;2022-11-20T04:26:30;26.85;;;13.85;;
69970;SDS011;57301;50.328;8.542;2022-11-20T04:28:57;29.25;;;14.07;;
69970;SDS011;57301;50.328;8.542;2022-11-20T04:31:26;27.85;;;13.88;;
69970;SDS011;57301;50.328;8.542;2022-11-20T04:33:54;27.27;;;13.70;;
69970;SDS011;57301;50.328;8.542;2022-11-20T04:36:22;26.67;;;13.83;;
69970;SDS011;57301;50.328;8.542;2022-11-20T04:38:53;29.33;;;14.02;;
69970;SDS011;57301;50.328;8.542;2022-11-20T04:41:23;25.92;;;13.25;;
69970;SDS011;57301;50.328;8.542;2022-11-20T04:43:52;28.10;;;13.70;;
69970;SDS011;57301;50.328;8.542;2022-11-20T04:46:37;27.65;;;12.93;;
69970;SDS011;57301;50.328;8.542;2022-11-20T04:49:06;27.27;;;13.80;;
69970;SDS011;57301;50.328;8.542;2022-11-20T04:51:33;25.95;;;13.50;;
69970;SDS011;57301;50.328;8.542;2022-11-20T04:53:59;33.50;;;14.60;;
69970;SDS011;57301;50.328;8.542;2022-11-20T04:56:26;27.98;;;13.60;;
69970;SDS011;57301;50.328;8.542;2022-11-20T04:58:53;29.08;;;14.48;;
69970;SDS011;57301;50.328;8.542;2022-11-20T05:01:21;31.60;;;14.97;;
69970;SDS011;57301;50.328;8.542;2022-11-20T05:03:49;30.38;;;14.55;;
69970;SDS011;57301;50.328;8.542;2022-11-20T05:06:16;30.65;;;14.38;;
69970;SDS011;57301;50.328;8.542;2022-11-20T05:08:44;28.75;;;13.75;;
69970;SDS011;57301;50.328;8.542;2022-11-20T05:11:12;28.40;;;13.95;;
69970;SDS011;57301;50.328;8.542;2022-11-20T05:13:40;30.63;;;14.80;;
69970;SDS011;57301;50.328;8.542;2022-11-20T05:16:15;32.25;;;14.45;;
69970;SDS011;57301;50.328;8.542;2022-11-20T05:18:44;29.67;;;14.30;;
69970;SDS011;57301;50.328;8.542;2022-11-20T05:21:10;29.92;;;14.60;;
69970;SDS011;57301;50.328;8.542;2022-11-20T05:23:38;31.52;;;14.80;;
69970;SDS011;57301;50.328;8.542;2022-11-20T05:26:06;31.43;;;14.70;;
69970;SDS011;57301;50.328;8.542;2022-11-20T05:28:34;31.35;;;14.57;;
69970;SDS011;57301;50.328;8.542;2022-11-20T05:31:19;31.75;;;15.57;;
69970;SDS011;57301;50.328;8.542;2022-11-20T05:33:53;29.33;;;14.50;;
69970;SDS011;57301;50.328;8.542;2022-11-20T05:36:20;31.17;;;14.80;;
69970;SDS011;57301;50.328;8.542;2022-11-20T05:38:47;33.03;;;15.53;;
69970;SDS011;57301;50.328;8.542;2022-11-20T05:41:17;31.60;;;14.45;;
69970;SDS011;57301;50.328;8.542;2022-11-20T05:43:45;31.52;;;14.95;;
69970;SDS011;57301;50.328;8.542;2022-11-20T05:46:14;31.35;;;14.63;;
69970;SDS011;57301;50.328;8.542;2022-11-20T05:48:42;29.52;;;13.52;;
69970;SDS011;57301;50.328;8.542;2022-11-20T05:51:12;32.10;;;14.70;;
69970;SDS011;57301;50.328;8.542;2022-11-20T05:53:42;34.90;;;15.98;;
69970;SDS011;57301;50.328;8.542;2022-11-20T05:56:15;34.30;;;15.40;;
69970;SDS011;57301;50.328;8.542;2022-11-20T05:58:44;37.45;;;15.93;;
69970;SDS011;57301;50.328;8.542;2022-11-20T06:03:43;35.30;;;15.43;;
69970;SDS011;57301;50.328;8.542;2022-11-20T06:06:13;37.28;;;15.75;;
69970;SDS011;57301;50.328;8.542;2022-11-20T06:08:41;39.42;;;17.33;;
69970;SDS011;57301;50.328;8.542;2022-11-20T06:11:08;38.60;;;16.10;;
69970;SDS011;57301;50.328;8.542;2022-11-20T06:13:36;38.97;;;16.75;;
69970;SDS011;57301;50.328;8.542;2022-11-20T06:16:07;43.00;;;17.60;;
69970;SDS011;57301;50.328;8.542;2022-11-20T06:18:35;45.00;;;17.98;;
69970;SDS011;57301;50.328;8.542;2022-11-20T06:21:06;39.38;;;17.52;;
69970;SDS011;57301;50.328;8.542;2022-11-20T06:23:38;43.58;;;16.58;;
69970;SDS011;57301;50.328;8.542;2022-11-20T06:26:06;43.60;;;17.15;;
69970;SDS011;57301;50.328;8.542;2022-11-20T06:28:37;43.47;;;18.10;;
69970;SDS011;57301;50.328;8.542;2022-11-20T06:31:04;42.70;;;16.98;;
69970;SDS011;57301;50.328;8.542;2022-11-20T06:33:32;48.15;;;16.27;;
69970;SDS011;57301;50.328;8.542;2022-11-20T06:35:59;43.30;;;17.20;;
69970;SDS011;57301;50.328;8.542;2022-11-20T06:38:34;41.78;;;16.23;;
69970;SDS011;57301;50.328;8.542;2022-11-20T06:41:00;40.63;;;16.80;;
69970;SDS011;57301;50.328;8.542;2022-11-20T06:43:28;36.25;;;16.73;;
69970;SDS011;57301;50.328;8.542;2022-11-20T06:45:55;43.90;;;17.17;;
69970;SDS011;57301;50.328;8.542;2022-11-20T06:48:23;42.22;;;17.70;;
69970;SDS011;57301;50.328;8.542;2022-11-20T06:50:51;44.72;;;17.33;;
69970;SDS011;57301;50.328;8.542;2022-11-20T06:53:18;41.83;;;16.63;;
69970;SDS011;57301;50.328;8.542;2022-11-20T06:55:45;40.92;;;17.35;;
69970;SDS011;57301;50.328;8.542;2022-11-20T06:58:13;42.53;;;16.42;;
69970;SDS011;57301;50.328;8.542;2022-11-20T07:00:41;42.05;;;17.67;;
69970;SDS011;57301;50.328;8.542;2022-11-20T07:03:08;43.83;;;17.77;;
69970;SDS011;57301;50.328;8.542;2022-11-20T07:05:36;42.50;;;17.43;;
69970;SDS011;57301;50.328;8.542;2022-11-20T07:08:04;47.30;;;18.33;;
69970;SDS011;57301;50.328;8.542;2022-11-20T07:10:31;43.30;;;18.10;;
69970;SDS011;57301;50.328;8.542;2022-11-20T07:12:58;42.80;;;16.83;;
69970;SDS011;57301;50.328;8.542;2022-11-20T07:15:25;45.60;;;17.35;;
69970;SDS011;57301;50.328;8.542;2022-11-20T07:17:52;40.47;;;17.13;;
69970;SDS011;57301;50.328;8.542;2022-11-20T07:20:19;40.38;;;16.85;;
69970;SDS011;57301;50.328;8.542;2022-11-20T07:22:45;43.85;;;18.08;;
69970;SDS011;57301;50.328;8.542;2022-11-20T07:25:12;40.97;;;17.08;;
69970;SDS011;57301;50.328;8.542;2022-11-20T07:27:38;41.40;;;16.70;;
69970;SDS011;57301;50.328;8.542;2022-11-20T07:30:05;41.73;;;17.03;;
69970;SDS011;57301;50.328;8.542;2022-11-20T07:32:32;39.05;;;17.17;;
69970;SDS011;57301;50.328;8.542;2022-11-20T07:34:59;43.17;;;18.05;;
69970;SDS011;57301;50.328;8.542;2022-11-20T07:37:26;41.53;;;16.88;;
69970;SDS011;57301;50.328;8.542;2022-11-20T07:39:52;40.15;;;17.05;;
69970;SDS011;57301;50.328;8.542;2022-11-20T07:42:18;44.33;;;17.00;;
69970;SDS011;57301;50.328;8.542;2022-11-20T07:44:45;42.78;;;16.25;;
69970;SDS011;57301;50.328;8.542;2022-11-20T07:47:11;43.33;;;18.02;;
69970;SDS011;57301;50.328;8.542;2022-11-20T07:49:38;38.70;;;16.20;;
69970;SDS011;57301;50.328;8.542;2022-11-20T07:52:04;40.97;;;17.05;;
69970;SDS011;57301;50.328;8.542;2022-11-20T07:54:30;44.93;;;17.53;;
69970;SDS011;57301;50.328;8.542;2022-11-20T07:56:57;43.50;;;17.35;;
69970;SDS011;57301;50.328;8.542;2022-11-20T07:59:24;45.45;;;17.35;;
69970;SDS011;57301;50.328;8.542;2022-11-20T08:01:50;40.78;;;17.65;;
69970;SDS011;57301;50.328;8.542;2022-11-20T08:04:17;41.35;;;16.45;;
69970;SDS011;57301;50.328;8.542;2022-11-20T08:06:43;54.20;;;24.20;;
69970;SDS011;57301;50.328;8.542;2022-11-20T08:09:10;45.28;;;18.45;;
69970;SDS011;57301;50.328;8.542;2022-11-20T08:11:36;40.55;;;16.67;;
69970;SDS011;57301;50.328;8.542;2022-11-20T08:14:22;41.78;;;16.98;;
69970;SDS011;57301;50.328;8.542;2022-11-20T08:16:48;43.88;;;18.45;;
69970;SDS011;57301;50.328;8.542;2022-11-20T08:19:16;40.53;;;18.17;;
69970;SDS011;57301;50.328;8.542;2022-11-20T08:21:44;41.15;;;18.65;;
69970;SDS011;57301;50.328;8.542;2022-11-20T08:24:11;36.33;;;16.75;;
69970;SDS011;57301;50.328;8.542;2022-11-20T08:26:38;41.35;;;16.73;;
69970;SDS011;57301;50.328;8.542;2022-11-20T08:29:05;41.47;;;17.00;;
69970;SDS011;57301;50.328;8.542;2022-11-20T08:31:32;34.33;;;15.27;;
69970;SDS011;57301;50.328;8.542;2022-11-20T08:34:00;35.05;;;16.13;;
69970;SDS011;57301;50.328;8.542;2022-11-20T08:36:33;34.08;;;16.13;;
69970;SDS011;57301;50.328;8.542;2022-11-20T08:39:01;33.35;;;16.52;;
69970;SDS011;57301;50.328;8.542;2022-11-20T08:41:28;33.53;;;15.57;;
69970;SDS011;57301;50.328;8.542;2022-11-20T08:44:01;33.97;;;14.47;;
69970;SDS011;57301;50.328;8.542;2022-11-20T08:46:34;31.80;;;14.95;;
69970;SDS011;57301;50.328;8.542;2022-11-20T08:49:05;37.03;;;16.30;;
69970;SDS011;57301;50.328;8.542;2022-11-20T08:51:34;32.33;;;15.50;;
69970;SDS011;57301;50.328;8.542;2022-11-20T08:54:01;30.40;;;14.48;;
69970;SDS011;57301;50.328;8.542;2022-11-20T08:56:28;31.73;;;14.73;;
69970;SDS011;57301;50.328;8.542;2022-11-20T08:58:54;32.08;;;15.40;;
69970;SDS011;57301;50.328;8.542;2022-11-20T09:01:41;34.30;;;14.48;;
69970;SDS011;57301;50.328;8.542;2022-11-20T09:04:08;35.08;;;14.77;;
69970;SDS011;57301;50.328;8.542;2022-11-20T09:06:34;31.17;;;14.45;;
69970;SDS011;57301;50.328;8.542;2022-11-20T09:09:00;30.63;;;14.80;;
69970;SDS011;57301;50.328;8.542;2022-11-20T09:11:32;29.67;;;14.25;;
69970;SDS011;57301;50.328;8.542;2022-11-20T09:14:00;28.85;;;13.75;;
69970;SDS011;57301;50.328;8.542;2022-11-20T09:16:28;28.55;;;13.63;;
69970;SDS011;57301;50.328;8.542;2022-11-20T09:18:55;30.65;;;14.77;;
69970;SDS011;57301;50.328;8.542;2022-11-20T09:21:41;29.07;;;13.00;;
69970;SDS011;57301;50.328;8.542;2022-11-20T09:24:08;29.75;;;13.75;;
69970;SDS011;57301;50.328;8.542;2022-11-20T09:26:34;29.17;;;13.45;;
69970;SDS011;57301;50.328;8.542;2022-11-20T09:29:01;25.35;;;12.15;;
69970;SDS011;57301;50.328;8.542;2022-11-20T09:31:27;26.98;;;12.82;;
69970;SDS011;57301;50.328;8.542;2022-11-20T09:33:54;27.23;;;13.23;;
69970;SDS011;57301;50.328;8.542;2022-11-20T09:36:20;29.73;;;13.35;;
69970;SDS011;57301;50.328;8.542;2022-11-20T09:38:47;27.35;;;13.07;;
69970;SDS011;57301;50.328;8.542;2022-11-20T09:46:59;26.87;;;12.73;;
69970;SDS011;57301;50.328;8.542;2022-11-20T09:52:17;24.65;;;12.40;;
69970;SDS011;57301;50.328;8.542;2022-11-20T09:54:56;15.90;;;8.85;;
69970;SDS011;57301;50.328;8.542;2022-11-20T09:57:25;14.77;;;8.18;;
69970;SDS011;57301;50.328;8.542;2022-11-20T10:00:00;14.77;;;8.53;;
69970;SDS011;57301;50.328;8.542;2022-11-20T10:02:29;12.73;;;7.70;;
69970;SDS011;57301;50.328;8.542;2022-11-20T10:10:42;13.23;;;7.68;;
69970;SDS011;57301;50.328;8.542;2022-11-20T10:13:24;12.73;;;6.77;;
69970;SDS011;57301;50.328;8.542;2022-11-20T10:16:11;12.63;;;7.55;;
69970;SDS011;57301;50.328;8.542;2022-11-20T10:29:16;17.50;;;9.90;;
69970;SDS011;57301;50.328;8.542;2022-11-20T10:31:46;12.35;;;6.97;;
69970;SDS011;57301;50.328;8.542;2022-11-20T10:34:25;12.63;;;6.60;;
69970;SDS011;57301;50.328;8.542;2022-11-20T10:36:58;12.48;;;7.45;;
69970;SDS011;57301;50.328;8.542;2022-11-20T10:39:32;14.60;;;10.13;;
69970;SDS011;57301;50.328;8.542;2022-11-20T10:42:08;11.15;;;7.50;;
69970;SDS011;57301;50.328;8.542;2022-11-20T10:44:39;12.05;;;8.20;;
69970;SDS011;57301;50.328;8.542;2022-11-20T10:47:31;11.02;;;7.18;;
69970;SDS011;57301;50.328;8.542;2022-11-20T10:50:01;11.85;;;7.13;;
69970;SDS011;57301;50.328;8.542;2022-11-20T11:01:17;11.88;;;6.75;;
69970;SDS011;57301;50.328;8.542;2022-11-20T11:03:52;11.15;;;7.10;;
69970;SDS011;57301;50.328;8.542;2022-11-20T11:06:37;12.43;;;7.33;;
69970;SDS011;57301;50.328;8.542;2022-11-20T11:09:10;11.68;;;7.25;;
69970;SDS011;57301;50.328;8.542;2022-11-20T11:11:42;12.55;;;7.70;;
69970;SDS011;57301;50.328;8.542;2022-11-20T11:14:10;13.90;;;7.75;;
69970;SDS011;57301;50.328;8.542;2022-11-20T11:16:54;17.20;;;10.15;;
69970;SDS011;57301;50.328;8.542;2022-11-20T11:19:23;20.50;;;11.93;;
69970;SDS011;57301;50.328;8.542;2022-11-20T11:21:52;19.23;;;11.25;;
69970;SDS011;57301;50.328;8.542;2022-11-20T11:24:22;18.25;;;10.70;;
69970;SDS011;57301;50.328;8.542;2022-11-20T11:27:12;14.68;;;8.13;;
69970;SDS011;57301;50.328;8.542;2022-11-20T11:29:43;18.25;;;10.35;;
69970;SDS011;57301;50.328;8.542;2022-11-20T11:35:03;12.18;;;7.25;;
69970;SDS011;57301;50.328;8.542;2022-11-20T11:37:33;13.13;;;7.50;;
69970;SDS011;57301;50.328;8.542;2022-11-20T11:40:02;11.60;;;6.78;;
69970;SDS011;57301;50.328;8.542;2022-11-20T11:42:52;14.18;;;7.40;;
69970;SDS011;57301;50.328;8.542;2022-11-20T11:45:23;13.40;;;7.70;;
69970;SDS011;57301;50.328;8.542;2022-11-20T11:47:51;15.38;;;8.43;;
69970;SDS011;57301;50.328;8.542;2022-11-20T11:50:21;17.08;;;8.70;;
69970;SDS011;57301;50.328;8.542;2022-11-20T12:04:05;13.38;;;8.23;;
69970;SDS011;57301;50.328;8.542;2022-11-20T12:07:03;15.45;;;8.27;;
69970;SDS011;57301;50.328;8.542;2022-11-20T12:10:02;13.90;;;8.63;;
69970;SDS011;57301;50.328;8.542;2022-11-20T12:12:30;13.73;;;8.30;;
69970;SDS011;57301;50.328;8.542;2022-11-20T12:15:09;14.20;;;8.45;;
69970;SDS011;57301;50.328;8.542;2022-11-20T12:17:38;17.00;;;10.23;;
69970;SDS011;57301;50.328;8.542;2022-11-20T12:20:13;15.43;;;9.32;;
69970;SDS011;57301;50.328;8.542;2022-11-20T12:22:46;16.60;;;9.57;;
69970;SDS011;57301;50.328;8.542;2022-11-20T12:25:25;14.23;;;8.23;;
69970;SDS011;57301;50.328;8.542;2022-11-20T12:30:47;15.38;;;8.65;;
69970;SDS011;57301;50.328;8.542;2022-11-20T12:33:40;14.48;;;8.05;;
69970;SDS011;57301;50.328;8.542;2022-11-20T12:36:26;15.15;;;8.32;;
69970;SDS011;57301;50.328;8.542;2022-11-20T12:39:15;16.30;;;8.43;;
69970;SDS011;57301;50.328;8.542;2022-11-20T12:41:51;14.43;;;7.85;;
69970;SDS011;57301;50.328;8.542;2022-11-20T12:53:51;14.83;;;8.50;;
69970;SDS011;57301;50.328;8.542;2022-11-20T13:02:26;15.73;;;8.40;;
69970;SDS011;57301;50.328;8.542;2022-11-20T13:07:44;13.37;;;7.90;;
69970;SDS011;57301;50.328;8.542;2022-11-20T13:10:18;14.05;;;8.07;;
69970;SDS011;57301;50.328;8.542;2022-11-20T13:12:55;14.05;;;8.35;;
69970;SDS011;57301;50.328;8.542;2022-11-20T13:18:14;17.27;;;10.02;;
69970;SDS011;57301;50.328;8.542;2022-11-20T13:20:45;15.67;;;8.70;;
69970;SDS011;57301;50.328;8.542;2022-11-20T13:23:22;17.15;;;8.98;;
69970;SDS011;57301;50.328;8.542;2022-11-20T13:26:06;22.70;;;10.25;;
69970;SDS011;57301;50.328;8.542;2022-11-20T13:28:42;19.15;;;9.80;;
69970;SDS011;57301;50.328;8.542;2022-11-20T13:31:10;28.85;;;13.90;;
69970;SDS011;57301;50.328;8.542;2022-11-20T13:34:02;29.73;;;14.33;;
69970;SDS011;57301;50.328;8.542;2022-11-20T13:36:32;30.90;;;13.88;;
69970;SDS011;57301;50.328;8.542;2022-11-20T13:39:01;32.40;;;15.85;;
69970;SDS011;57301;50.328;8.542;2022-11-20T13:41:29;33.05;;;15.55;;
69970;SDS011;57301;50.328;8.542;2022-11-20T13:46:40;33.67;;;14.43;;
69970;SDS011;57301;50.328;8.542;2022-11-20T13:49:18;30.20;;;13.55;;
69970;SDS011;57301;50.328;8.542;2022-11-20T14:00:30;33.10;;;13.93;;
69970;SDS011;57301;50.328;8.542;2022-11-20T14:05:39;31.48;;;15.00;;
69970;SDS011;57301;50.328;8.542;2022-11-20T14:08:47;29.50;;;13.25;;
69970;SDS011;57301;50.328;8.542;2022-11-20T14:11:21;33.50;;;14.77;;
69970;SDS011;57301;50.328;8.542;2022-11-20T14:16:34;30.50;;;13.30;;
69970;SDS011;57301;50.328;8.542;2022-11-20T14:21:53;33.90;;;14.05;;
69970;SDS011;57301;50.328;8.542;2022-11-20T14:24:34;30.98;;;13.20;;
69970;SDS011;57301;50.328;8.542;2022-11-20T14:27:00;27.70;;;12.83;;
69970;SDS011;57301;50.328;8.542;2022-11-20T14:29:37;32.17;;;14.00;;
69970;SDS011;57301;50.328;8.542;2022-11-20T14:32:04;33.75;;;14.85;;
69970;SDS011;57301;50.328;8.542;2022-11-20T14:34:32;36.33;;;17.08;;
69970;SDS011;57301;50.328;8.542;2022-11-20T14:37:04;32.42;;;15.27;;
69970;SDS011;57301;50.328;8.542;2022-11-20T14:39:33;33.03;;;14.73;;
69970;SDS011;57301;50.328;8.542;2022-11-20T14:42:01;33.22;;;16.70;;
69970;SDS011;57301;50.328;8.542;2022-11-20T14:44:36;33.33;;;17.48;;
69970;SDS011;57301;50.328;8.542;2022-11-20T14:47:04;36.67;;;15.98;;
69970;SDS011;57301;50.328;8.542;2022-11-20T14:49:31;32.83;;;14.60;;
69970;SDS011;57301;50.328;8.542;2022-11-20T14:52:02;31.03;;;14.20;;
69970;SDS011;57301;50.328;8.542;2022-11-20T14:54:46;39.30;;;17.17;;
69970;SDS011;57301;50.328;8.542;2022-11-20T15:02:31;43.88;;;18.77;;
69970;SDS011;57301;50.328;8.542;2022-11-20T15:04:59;37.47;;;16.53;;
69970;SDS011;57301;50.328;8.542;2022-11-20T15:07:33;40.58;;;16.08;;
69970;SDS011;57301;50.328;8.542;2022-11-20T15:10:08;43.42;;;16.73;;
69970;SDS011;57301;50.328;8.542;2022-11-20T15:12:38;45.38;;;17.35;;
69970;SDS011;57301;50.328;8.542;2022-11-20T15:15:12;46.88;;;17.58;;
69970;SDS011;57301;50.328;8.542;2022-11-20T15:17:43;45.53;;;17.63;;
69970;SDS011;57301;50.328;8.542;2022-11-20T15:20:13;51.65;;;18.67;;
69970;SDS011;57301;50.328;8.542;2022-11-20T15:22:41;44.75;;;18.35;;
69970;SDS011;57301;50.328;8.542;2022-11-20T15:25:14;53.47;;;20.30;;
69970;SDS011;57301;50.328;8.542;2022-11-20T15:27:43;41.33;;;18.80;;
69970;SDS011;57301;50.328;8.542;2022-11-20T15:30:14;44.30;;;18.43;;
69970;SDS011;57301;50.328;8.542;2022-11-20T15:32:43;50.55;;;20.02;;
69970;SDS011;57301;50.328;8.542;2022-11-20T15:35:10;47.42;;;19.83;;
69970;SDS011;57301;50.328;8.542;2022-11-20T15:37:37;48.45;;;19.17;;
69970;SDS011;57301;50.328;8.542;2022-11-20T15:40:04;49.22;;;19.05;;
69970;SDS011;57301;50.328;8.542;2022-11-20T15:42:32;38.70;;;15.03;;
69970;SDS011;57301;50.328;8.542;2022-11-20T15:44:59;48.08;;;17.73;;
69970;SDS011;57301;50.328;8.542;2022-11-20T15:47:29;36.80;;;15.60;;
69970;SDS011;57301;50.328;8.542;2022-11-20T15:49:58;45.38;;;17.85;;
69970;SDS011;57301;50.328;8.542;2022-11-20T15:52:25;47.72;;;19.33;;
69970;SDS011;57301;50.328;8.542;2022-11-20T15:54:58;48.57;;;18.53;;
69970;SDS011;57301;50.328;8.542;2022-11-20T15:57:24;50.08;;;19.52;;
69970;SDS011;57301;50.328;8.542;2022-11-20T15:59:51;49.30;;;20.30;;
69970;SDS011;57301;50.328;8.542;2022-11-20T16:02:18;49.33;;;20.38;;
69970;SDS011;57301;50.328;8.542;2022-11-20T16:04:44;47.65;;;20.42;;
69970;SDS011;57301;50.328;8.542;2022-11-20T16:07:11;39.97;;;16.60;;
69970;SDS011;57301;50.328;8.542;2022-11-20T16:09:37;47.10;;;17.83;;
69970;SDS011;57301;50.328;8.542;2022-11-20T16:12:04;43.58;;;18.30;;
69970;SDS011;57301;50.328;8.542;2022-11-20T16:14:31;45.75;;;18.30;;
69970;SDS011;57301;50.328;8.542;2022-11-20T16:17:16;48.15;;;18.38;;
69970;SDS011;57301;50.328;8.542;2022-11-20T16:20:02;39.43;;;16.87;;
69970;SDS011;57301;50.328;8.542;2022-11-20T16:22:29;44.08;;;19.17;;
69970;SDS011;57301;50.328;8.542;2022-11-20T16:24:55;43.10;;;18.75;;
69970;SDS011;57301;50.328;8.542;2022-11-20T16:27:22;45.22;;;19.00;;